Terminal Aerodrome Forecast
Issued by NWS

Home | Current Version | Previous Version | Text Only | Print | Product List | Glossary On
Versions: 1 2 3 4 5 6 7 8 9 10 11 12 13
945
FTUS45 KFGZ 221120
TAFPRC
TAF
KPRC 221120Z 2212/2312 20007KT P6SM FEW120
     FM222100 32010G16KT P6SM SCT120
     FM230200 27007KT P6SM FEW120=

USA.gov is the U.S. government's official web portal to all federal, state and local government web resources and services.